Terminal Aerodrome Forecast
Issued by NWS

Home | Current Version | Previous Version | Graphics & Text | Print | Product List | Glossary On
Versions: 1 2 3 4 5 6 7 8 9 10 11 12 13 14 15 16 17
000
FTUS43 KMPX 271100
TAFAXN
TAF
KAXN 271136Z 2712/2812 32017G25KT P6SM VCSH BKN015 OVC025
     FM272000 33014G22KT P6SM VCSH SCT015 BKN025 OVC050
     FM280100 35014KT P6SM BKN050
     FM280400 34005KT P6SM SKC=

USA.gov is the U.S. government's official web portal to all federal, state and local government web resources and services.